createdAt,value
2017-12-29T00:01:40.572Z,0.10
2017-12-29T00:04:08.085Z,0.00
2017-12-29T00:06:36.382Z,0.00
2017-12-29T00:09:03.869Z,0.00
2017-12-29T00:11:31.366Z,0.10
2017-12-29T00:13:58.926Z,0.10
2017-12-29T00:16:26.573Z,0.10
2017-12-29T00:18:54.102Z,0.00
2017-12-29T00:21:21.618Z,0.00
2017-12-29T00:23:49.951Z,0.00
2017-12-29T00:26:17.411Z,0.00
2017-12-29T00:28:44.917Z,0.00
2017-12-29T00:31:12.437Z,0.10
2017-12-29T00:33:39.942Z,0.10
2017-12-29T00:36:07.428Z,0.10
2017-12-29T00:38:35.256Z,0.10
2017-12-29T00:41:02.715Z,0.10
2017-12-29T00:43:30.452Z,0.10
2017-12-29T00:45:57.911Z,0.10
2017-12-29T00:48:25.366Z,0.00
2017-12-29T00:50:52.854Z,-0.10
2017-12-29T00:53:20.670Z,-0.10
2017-12-29T00:55:48.894Z,-0.10
2017-12-29T00:58:18.960Z,0.00
2017-12-29T01:00:46.471Z,-0.10
2017-12-29T01:03:14.089Z,0.10
2017-12-29T01:05:42.398Z,0.20
2017-12-29T01:08:09.890Z,0.20
2017-12-29T01:10:37.382Z,0.20
2017-12-29T01:13:04.863Z,0.30
2017-12-29T01:15:32.539Z,0.30
2017-12-29T01:18:00.025Z,0.40
2017-12-29T01:20:27.810Z,0.40
2017-12-29T01:22:56.086Z,0.30
2017-12-29T01:25:24.394Z,0.30
2017-12-29T01:27:53.083Z,0.30
2017-12-29T01:30:20.635Z,0.20
2017-12-29T01:32:48.296Z,0.20
2017-12-29T01:35:15.868Z,0.20
2017-12-29T01:37:43.385Z,0.30
2017-12-29T01:40:12.281Z,0.30
2017-12-29T01:42:41.866Z,0.30
2017-12-29T01:45:10.701Z,0.40
2017-12-29T01:47:50.419Z,0.30
2017-12-29T01:50:17.985Z,0.40
2017-12-29T01:52:45.520Z,0.40
2017-12-29T01:55:13.238Z,0.40
2017-12-29T01:57:43.096Z,0.30
2017-12-29T02:00:10.770Z,0.40
2017-12-29T02:02:38.273Z,0.30
2017-12-29T02:05:05.796Z,0.30
2017-12-29T02:07:33.254Z,0.30
2017-12-29T02:10:00.838Z,0.40
2017-12-29T02:12:29.184Z,0.40
2017-12-29T02:14:56.674Z,0.40
2017-12-29T02:17:24.954Z,0.40
2017-12-29T02:19:53.265Z,0.40
2017-12-29T02:22:20.782Z,0.40
2017-12-29T02:24:49.027Z,0.40
2017-12-29T02:27:16.514Z,0.40
2017-12-29T02:29:44.747Z,0.40
2017-12-29T02:32:12.313Z,0.40
2017-12-29T02:34:39.762Z,0.40
2017-12-29T02:37:07.298Z,0.40
2017-12-29T02:39:34.793Z,0.40
2017-12-29T02:42:02.338Z,0.40
2017-12-29T02:44:29.815Z,0.40
2017-12-29T02:46:57.474Z,0.40
2017-12-29T02:49:24.944Z,0.40
2017-12-29T02:51:52.742Z,0.40
2017-12-29T02:54:21.495Z,0.40
2017-12-29T02:56:49.014Z,0.40
2017-12-29T02:59:16.751Z,0.40
2017-12-29T03:01:44.999Z,0.40
2017-12-29T03:04:12.495Z,0.40
2017-12-29T03:06:39.997Z,0.40
2017-12-29T03:09:07.510Z,0.40
2017-12-29T03:11:35.030Z,0.40
2017-12-29T03:14:02.501Z,0.40
2017-12-29T03:16:30.853Z,0.40
2017-12-29T03:18:58.572Z,0.40
2017-12-29T03:21:26.124Z,0.40
2017-12-29T03:23:53.642Z,0.50
2017-12-29T03:26:21.105Z,0.40
2017-12-29T03:28:48.559Z,0.50
2017-12-29T03:31:16.123Z,0.50
2017-12-29T03:33:43.581Z,0.50
2017-12-29T03:36:11.082Z,0.50
2017-12-29T03:38:38.697Z,0.50
2017-12-29T03:41:06.150Z,0.50
2017-12-29T03:43:33.798Z,0.50
2017-12-29T03:46:01.309Z,0.60
2017-12-29T03:48:28.780Z,0.60
2017-12-29T03:50:56.310Z,0.60
2017-12-29T03:53:24.569Z,0.60
2017-12-29T03:55:52.018Z,0.60
2017-12-29T03:58:19.670Z,0.60
2017-12-29T04:00:47.245Z,0.60
2017-12-29T04:03:15.674Z,0.60
2017-12-29T04:05:43.118Z,0.60
2017-12-29T04:08:10.619Z,0.60
2017-12-29T04:10:38.098Z,0.70
2017-12-29T04:13:05.594Z,0.70
2017-12-29T04:15:33.117Z,0.70
2017-12-29T04:18:00.604Z,0.70
2017-12-29T04:20:28.129Z,0.70
2017-12-29T04:22:55.691Z,0.70
2017-12-29T04:25:23.171Z,0.80
2017-12-29T04:27:51.630Z,0.80
2017-12-29T04:30:19.319Z,0.80
2017-12-29T04:32:46.876Z,0.80
2017-12-29T04:35:15.382Z,0.90
2017-12-29T04:37:43.078Z,0.80
2017-12-29T04:40:10.545Z,0.90
2017-12-29T04:42:38.097Z,0.80
2017-12-29T04:45:07.365Z,0.80
2017-12-29T04:47:35.020Z,0.80
2017-12-29T04:50:02.486Z,0.80
2017-12-29T04:52:30.090Z,0.80
2017-12-29T04:54:57.575Z,0.80
2017-12-29T04:57:26.050Z,0.50
2017-12-29T04:59:54.341Z,0.50
2017-12-29T05:02:21.889Z,0.50
2017-12-29T05:04:50.471Z,0.50
2017-12-29T05:07:19.081Z,0.40
2017-12-29T05:09:46.590Z,0.40
2017-12-29T05:12:14.062Z,0.40
2017-12-29T05:14:42.342Z,0.50
2017-12-29T05:17:10.606Z,0.60
2017-12-29T05:19:38.131Z,0.50
2017-12-29T05:22:05.628Z,0.50
2017-12-29T05:24:33.873Z,0.60
2017-12-29T05:27:01.376Z,0.50
2017-12-29T05:29:29.717Z,0.60
2017-12-29T05:31:57.201Z,0.60
2017-12-29T05:34:25.596Z,0.70
2017-12-29T05:36:53.093Z,0.70
2017-12-29T05:39:20.614Z,0.70
2017-12-29T05:41:48.991Z,0.70
2017-12-29T05:44:17.247Z,0.80
2017-12-29T05:46:44.825Z,0.70
2017-12-29T05:49:13.070Z,0.80
2017-12-29T05:51:40.649Z,0.70
2017-12-29T05:54:09.022Z,0.80
2017-12-29T05:56:36.497Z,0.70
2017-12-29T05:59:04.738Z,0.80
2017-12-29T06:01:32.242Z,0.80
2017-12-29T06:03:59.841Z,0.80
2017-12-29T06:06:27.427Z,0.80
2017-12-29T06:08:54.893Z,0.80
2017-12-29T06:11:23.189Z,0.90
2017-12-29T06:13:52.232Z,0.90
2017-12-29T06:16:20.197Z,0.80
2017-12-29T06:18:47.786Z,0.90
2017-12-29T06:21:15.372Z,0.90
2017-12-29T06:23:43.276Z,0.90
2017-12-29T06:26:10.839Z,0.90
2017-12-29T06:28:38.441Z,0.90
2017-12-29T06:31:06.012Z,0.90
2017-12-29T06:33:34.390Z,0.90
2017-12-29T06:36:02.843Z,0.90
2017-12-29T06:38:30.346Z,0.90
2017-12-29T06:40:58.699Z,0.90
2017-12-29T06:43:26.216Z,0.90
2017-12-29T06:45:54.472Z,0.80
2017-12-29T06:48:22.205Z,0.80
2017-12-29T06:50:50.457Z,0.80
2017-12-29T06:53:18.056Z,0.80
2017-12-29T06:55:45.894Z,0.80
2017-12-29T06:58:13.635Z,0.80
2017-12-29T07:00:41.086Z,0.80
2017-12-29T07:03:08.650Z,0.90
2017-12-29T07:05:36.248Z,0.90
2017-12-29T07:08:04.487Z,0.90
2017-12-29T07:10:32.045Z,0.90
2017-12-29T07:12:59.883Z,0.90
2017-12-29T07:15:27.408Z,0.90
2017-12-29T07:17:55.670Z,0.90
2017-12-29T07:20:24.700Z,0.90
2017-12-29T07:22:52.491Z,0.90
2017-12-29T07:25:20.152Z,0.90
2017-12-29T07:27:47.659Z,0.90
2017-12-29T07:30:15.122Z,0.90
2017-12-29T07:32:43.400Z,0.90
2017-12-29T07:35:11.026Z,0.90
2017-12-29T07:37:38.506Z,0.90
2017-12-29T07:40:06.034Z,0.90
2017-12-29T07:42:33.632Z,1.00
2017-12-29T07:45:02.463Z,1.00
2017-12-29T07:47:30.061Z,1.00
2017-12-29T07:49:58.959Z,0.90
2017-12-29T07:52:26.588Z,0.90
2017-12-29T07:54:54.416Z,1.00
2017-12-29T07:57:21.955Z,1.00
2017-12-29T07:59:50.353Z,1.00
2017-12-29T08:02:17.875Z,1.00
2017-12-29T08:04:47.798Z,1.00
2017-12-29T08:07:15.676Z,1.00
2017-12-29T08:09:43.231Z,1.00
2017-12-29T08:12:10.874Z,1.00
2017-12-29T08:14:39.247Z,1.00
2017-12-29T08:17:06.820Z,1.00
2017-12-29T08:19:35.101Z,1.00
2017-12-29T08:22:02.745Z,1.10
2017-12-29T08:24:31.053Z,1.10
2017-12-29T08:27:00.653Z,1.10
2017-12-29T08:29:28.118Z,1.10
2017-12-29T08:31:56.586Z,1.10
2017-12-29T08:34:24.278Z,1.10
2017-12-29T08:36:52.617Z,1.20
2017-12-29T08:39:20.295Z,1.20
2017-12-29T08:41:47.782Z,1.20
2017-12-29T08:44:15.386Z,1.20
2017-12-29T08:46:43.428Z,1.20
2017-12-29T08:49:10.974Z,1.20
2017-12-29T08:51:39.273Z,1.20
2017-12-29T08:54:06.873Z,1.20
2017-12-29T08:56:34.693Z,1.20
2017-12-29T08:59:02.546Z,1.20
2017-12-29T09:01:30.118Z,1.20
2017-12-29T09:03:57.652Z,1.30
2017-12-29T09:06:27.743Z,1.20
2017-12-29T09:08:55.395Z,1.20
2017-12-29T09:11:22.950Z,1.30
2017-12-29T09:13:50.546Z,1.40
2017-12-29T09:16:18.078Z,1.50
2017-12-29T09:18:45.586Z,1.60
2017-12-29T09:21:13.143Z,1.60
2017-12-29T09:23:40.692Z,1.70
2017-12-29T09:26:08.202Z,1.70
2017-12-29T09:28:36.673Z,1.90
2017-12-29T09:33:39.891Z,2.10
2017-12-29T09:36:08.267Z,2.40
2017-12-29T09:38:36.120Z,2.50
2017-12-29T09:41:04.380Z,2.50
2017-12-29T09:43:32.127Z,2.50
2017-12-29T09:45:59.882Z,2.40
2017-12-29T09:48:27.401Z,2.20
2017-12-29T09:50:55.285Z,2.90
2017-12-29T09:53:22.819Z,3.90
2017-12-29T09:55:50.431Z,5.90
2017-12-29T09:58:18.043Z,6.80
2017-12-29T10:00:46.284Z,8.50
2017-12-29T10:03:13.779Z,8.50
2017-12-29T10:05:41.242Z,8.70
2017-12-29T10:08:08.763Z,8.30
2017-12-29T10:10:36.409Z,7.50
2017-12-29T10:13:03.978Z,8.30
2017-12-29T10:15:31.450Z,8.60
2017-12-29T10:17:59.793Z,6.60
2017-12-29T10:20:27.312Z,6.50
2017-12-29T10:22:54.923Z,5.40
2017-12-29T10:25:22.584Z,4.40
2017-12-29T10:27:50.146Z,4.30
2017-12-29T10:30:17.654Z,5.00
2017-12-29T10:32:45.223Z,4.50
2017-12-29T10:35:12.758Z,6.70
2017-12-29T10:37:40.246Z,8.70
2017-12-29T10:40:07.754Z,7.30
2017-12-29T10:42:35.407Z,5.00
2017-12-29T10:45:03.383Z,5.40
2017-12-29T10:47:31.482Z,8.00
2017-12-29T10:49:59.224Z,7.30
2017-12-29T10:52:26.769Z,7.00
2017-12-29T10:54:55.027Z,5.70
2017-12-29T10:57:23.271Z,4.70
2017-12-29T10:59:51.376Z,4.70
2017-12-29T11:02:19.063Z,4.30
2017-12-29T11:04:46.592Z,4.10
2017-12-29T11:07:14.822Z,3.50
2017-12-29T11:09:42.399Z,3.50
2017-12-29T11:12:09.902Z,3.50
2017-12-29T11:14:37.707Z,3.50
2017-12-29T11:17:05.316Z,3.40
2017-12-29T11:19:33.070Z,3.10
2017-12-29T11:22:01.433Z,2.80
2017-12-29T11:24:29.219Z,2.70
2017-12-29T11:26:56.834Z,2.90
2017-12-29T11:29:24.391Z,3.00
2017-12-29T11:31:51.971Z,3.00
2017-12-29T11:34:19.448Z,2.70
2017-12-29T11:36:47.032Z,2.60
2017-12-29T11:39:14.527Z,2.50
2017-12-29T11:41:42.094Z,2.60
2017-12-29T11:44:09.674Z,2.60
2017-12-29T11:46:37.258Z,2.80
2017-12-29T11:49:04.709Z,2.80
2017-12-29T11:51:32.680Z,2.90
2017-12-29T11:54:00.188Z,2.70
2017-12-29T11:56:27.753Z,2.70
2017-12-29T11:58:55.298Z,2.80
2017-12-29T12:01:22.882Z,2.70
2017-12-29T12:03:50.326Z,2.80
2017-12-29T12:06:17.827Z,2.80
2017-12-29T12:08:45.380Z,3.00
2017-12-29T12:11:12.865Z,2.90
2017-12-29T12:13:40.330Z,3.00
2017-12-29T12:16:08.060Z,2.90
2017-12-29T12:18:36.286Z,2.70
2017-12-29T12:21:03.798Z,2.60
2017-12-29T12:23:32.070Z,2.50
2017-12-29T12:25:59.662Z,2.50
2017-12-29T12:28:27.218Z,2.70
2017-12-29T12:30:54.748Z,2.70
2017-12-29T12:33:22.204Z,2.60
2017-12-29T12:35:49.735Z,2.60
2017-12-29T12:38:17.344Z,3.50
2017-12-29T12:40:44.846Z,3.90
2017-12-29T12:43:12.318Z,3.40
2017-12-29T12:45:39.922Z,3.70
2017-12-29T12:48:08.286Z,3.40
2017-12-29T12:50:36.559Z,3.10
2017-12-29T12:53:05.129Z,3.20
2017-12-29T12:55:33.214Z,3.20
2017-12-29T12:58:01.563Z,3.80
2017-12-29T13:00:29.051Z,3.70
2017-12-29T13:02:56.671Z,3.60
2017-12-29T13:05:24.337Z,3.60
2017-12-29T13:07:51.835Z,3.20
2017-12-29T13:10:20.177Z,2.70
2017-12-29T13:12:47.661Z,2.70
2017-12-29T13:15:15.294Z,2.50
2017-12-29T13:17:43.525Z,2.50
2017-12-29T13:22:48.846Z,2.40
2017-12-29T13:25:16.720Z,2.40
2017-12-29T13:27:44.176Z,2.30
2017-12-29T13:30:11.753Z,2.30
2017-12-29T13:32:39.322Z,2.20
2017-12-29T13:35:07.694Z,2.10
2017-12-29T13:37:35.979Z,2.10
2017-12-29T13:40:04.440Z,2.10
2017-12-29T13:42:32.081Z,2.10
2017-12-29T13:44:59.654Z,2.10
2017-12-29T13:47:28.019Z,2.00
2017-12-29T13:49:55.478Z,2.00
2017-12-29T13:52:22.962Z,2.00
2017-12-29T13:54:51.674Z,2.30
2017-12-29T13:57:19.928Z,2.40
2017-12-29T13:59:49.488Z,2.50
2017-12-29T14:02:17.197Z,2.50
2017-12-29T14:04:44.765Z,2.50
2017-12-29T14:07:13.037Z,2.50
2017-12-29T14:09:41.309Z,2.40
2017-12-29T14:12:09.859Z,2.40
2017-12-29T14:14:38.170Z,2.30
2017-12-29T14:17:05.866Z,2.30
2017-12-29T14:19:33.372Z,2.20
2017-12-29T14:22:01.761Z,2.20
2017-12-29T14:24:29.322Z,2.10
2017-12-29T14:26:56.783Z,2.00
2017-12-29T14:29:24.378Z,1.90
2017-12-29T14:31:51.909Z,2.00
2017-12-29T14:34:20.171Z,2.00
2017-12-29T14:36:47.699Z,2.00
2017-12-29T14:39:15.194Z,1.90
2017-12-29T14:41:42.710Z,1.80
2017-12-29T14:44:10.322Z,1.80
2017-12-29T14:46:38.642Z,1.70
2017-12-29T14:49:06.140Z,1.70
2017-12-29T14:51:33.696Z,1.70
2017-12-29T14:54:02.002Z,1.60
2017-12-29T14:56:30.302Z,1.50
2017-12-29T14:58:57.942Z,1.50
2017-12-29T15:01:39.889Z,1.40
2017-12-29T15:04:21.526Z,1.30
2017-12-29T15:07:02.836Z,1.30
2017-12-29T15:09:44.308Z,1.20
2017-12-29T15:12:25.896Z,1.10
2017-12-29T15:15:07.288Z,1.10
2017-12-29T15:17:48.375Z,1.10
2017-12-29T15:20:29.590Z,1.10
2017-12-29T15:23:10.676Z,1.00
2017-12-29T15:25:52.427Z,1.00
2017-12-29T15:28:33.607Z,0.90
2017-12-29T15:31:15.139Z,0.90
2017-12-29T15:33:56.582Z,0.90
2017-12-29T15:48:59.701Z,16.80
2017-12-29T15:51:40.702Z,12.50
2017-12-29T15:54:22.372Z,6.00
2017-12-29T15:57:03.938Z,5.90
2017-12-29T15:59:45.423Z,4.30
2017-12-29T16:02:27.120Z,1.90
2017-12-29T16:05:09.348Z,1.50
2017-12-29T16:07:50.742Z,1.50
2017-12-29T16:10:33.085Z,1.40
2017-12-29T16:13:14.230Z,1.40
2017-12-29T16:15:55.892Z,1.30
2017-12-29T16:18:36.738Z,1.30
2017-12-29T16:21:17.747Z,1.20
2017-12-29T16:23:58.939Z,1.20
2017-12-29T16:26:40.859Z,1.10
2017-12-29T16:29:22.318Z,1.10
2017-12-29T16:32:03.436Z,1.20
2017-12-29T16:34:45.018Z,1.00
2017-12-29T16:37:26.590Z,1.00
2017-12-29T16:40:07.782Z,1.00
2017-12-29T16:42:49.570Z,1.00
2017-12-29T16:45:30.588Z,1.00
2017-12-29T16:48:11.699Z,0.90
2017-12-29T16:50:52.908Z,0.90
2017-12-29T16:53:34.209Z,0.90
2017-12-29T16:56:15.612Z,0.90
2017-12-29T16:58:56.714Z,0.80
2017-12-29T17:01:38.159Z,0.80
2017-12-29T17:04:19.206Z,0.70
2017-12-29T17:07:01.111Z,0.70
2017-12-29T17:09:42.733Z,0.60
2017-12-29T17:12:23.892Z,0.70
2017-12-29T17:15:05.381Z,0.60
2017-12-29T17:17:46.894Z,0.50
2017-12-29T17:20:28.234Z,0.50
2017-12-29T17:23:08.938Z,0.60
2017-12-29T17:25:50.448Z,0.60
2017-12-29T17:28:32.118Z,0.60
2017-12-29T17:31:14.083Z,0.50
2017-12-29T17:33:55.750Z,0.50
2017-12-29T17:36:36.983Z,0.60
2017-12-29T17:39:17.953Z,0.50
2017-12-29T17:41:59.170Z,0.50
2017-12-29T17:44:40.341Z,0.50
2017-12-29T17:47:22.019Z,0.40
2017-12-29T17:50:03.519Z,0.40
2017-12-29T17:52:44.799Z,0.40
2017-12-29T17:55:26.149Z,0.50
2017-12-29T17:58:08.355Z,0.40
2017-12-29T18:00:49.218Z,0.40
2017-12-29T18:03:30.623Z,0.60
2017-12-29T18:06:14.145Z,0.40
2017-12-29T18:08:54.979Z,0.40
2017-12-29T18:11:36.722Z,0.40
2017-12-29T18:14:18.325Z,0.40
2017-12-29T18:16:59.653Z,0.50
2017-12-29T18:19:40.770Z,0.40
2017-12-29T18:22:22.032Z,0.40
2017-12-29T18:25:03.783Z,0.30
2017-12-29T18:27:44.930Z,0.40
2017-12-29T18:30:26.868Z,0.40
2017-12-29T18:33:09.228Z,0.40
2017-12-29T18:35:50.726Z,0.40
2017-12-29T18:38:32.747Z,0.40
2017-12-29T18:41:14.359Z,0.40
2017-12-29T18:43:55.957Z,0.40
2017-12-29T18:46:38.369Z,0.40
2017-12-29T18:49:19.062Z,0.40
2017-12-29T18:52:00.274Z,0.40
2017-12-29T18:54:41.519Z,0.40
2017-12-29T18:57:23.099Z,0.40
2017-12-29T19:00:03.813Z,0.40
2017-12-29T19:02:45.904Z,0.40
2017-12-29T19:05:27.712Z,0.40
2017-12-29T19:08:08.684Z,0.40
2017-12-29T19:10:49.955Z,0.40
2017-12-29T19:13:32.898Z,0.40
2017-12-29T19:16:14.407Z,0.40
2017-12-29T19:18:55.862Z,0.40
2017-12-29T19:21:36.486Z,0.40
2017-12-29T19:26:37.378Z,0.40
2017-12-29T19:29:05.907Z,0.30
2017-12-29T19:31:34.414Z,0.30
2017-12-29T19:34:03.548Z,0.30
2017-12-29T19:36:31.871Z,0.30
2017-12-29T19:39:00.906Z,0.50
2017-12-29T19:41:30.160Z,0.40
2017-12-29T19:43:58.645Z,0.50
2017-12-29T19:46:28.046Z,0.60
2017-12-29T19:48:56.502Z,0.60
2017-12-29T19:51:24.904Z,0.70
2017-12-29T19:53:53.206Z,0.70
2017-12-29T19:56:21.559Z,0.70
2017-12-29T19:58:50.044Z,0.70
2017-12-29T20:01:18.395Z,0.70
2017-12-29T20:03:46.966Z,0.70
2017-12-29T20:06:15.430Z,0.70
2017-12-29T20:08:43.816Z,0.70
2017-12-29T20:11:12.165Z,0.70
2017-12-29T20:13:41.117Z,0.60
2017-12-29T20:16:10.022Z,0.60
2017-12-29T20:18:40.052Z,0.60
2017-12-29T20:21:09.695Z,0.50
2017-12-29T20:23:37.941Z,0.50
2017-12-29T20:26:08.484Z,0.50
2017-12-29T20:28:37.529Z,0.40
2017-12-29T20:31:06.593Z,0.40
2017-12-29T20:33:35.999Z,0.30
2017-12-29T20:36:04.521Z,0.30
2017-12-29T20:38:33.006Z,0.20
2017-12-29T20:41:01.587Z,0.20
2017-12-29T20:43:32.156Z,0.20
2017-12-29T20:46:01.779Z,0.00
2017-12-29T20:48:30.748Z,0.00
2017-12-29T20:50:59.970Z,0.00
2017-12-29T20:53:28.250Z,-0.10
2017-12-29T20:55:56.813Z,0.00
2017-12-29T20:58:25.170Z,0.00
2017-12-29T21:00:53.813Z,0.10
2017-12-29T21:03:22.158Z,0.00
2017-12-29T21:05:50.651Z,0.10
2017-12-29T21:08:19.518Z,0.00
2017-12-29T21:10:48.564Z,0.00
2017-12-29T21:13:17.167Z,0.00
2017-12-29T21:15:46.312Z,0.00
2017-12-29T21:18:14.834Z,-0.10
2017-12-29T21:20:43.202Z,-0.20
2017-12-29T21:23:11.523Z,-0.10
2017-12-29T21:25:41.414Z,-0.10
2017-12-29T21:28:09.747Z,-0.10
2017-12-29T21:30:39.424Z,0.00
2017-12-29T21:33:07.916Z,0.00
2017-12-29T21:35:37.911Z,0.10
2017-12-29T21:38:07.595Z,0.10
2017-12-29T21:40:35.886Z,0.10
2017-12-29T21:43:04.257Z,0.00
2017-12-29T21:45:32.566Z,0.00
2017-12-29T21:48:00.837Z,0.10
2017-12-29T21:50:29.178Z,0.00
2017-12-29T21:52:57.528Z,0.10
2017-12-29T21:55:25.813Z,0.10
2017-12-29T21:57:54.341Z,0.00
2017-12-29T22:00:23.442Z,0.00
2017-12-29T22:02:52.592Z,0.10
2017-12-29T22:05:21.794Z,0.00
2017-12-29T22:07:50.222Z,0.00
2017-12-29T22:10:18.596Z,0.00
2017-12-29T22:12:47.966Z,-0.10
2017-12-29T22:15:16.966Z,-0.10
2017-12-29T22:17:45.283Z,-0.10
2017-12-29T22:20:14.412Z,-0.10
2017-12-29T22:22:42.731Z,-0.10
2017-12-29T22:25:11.228Z,0.00
2017-12-29T22:27:39.527Z,-0.10
2017-12-29T22:30:08.249Z,0.00
2017-12-29T22:32:37.456Z,0.00
2017-12-29T22:35:05.775Z,0.00
2017-12-29T22:37:34.865Z,0.10
2017-12-29T22:40:04.756Z,0.00
2017-12-29T22:42:33.625Z,0.10
2017-12-29T22:45:02.919Z,0.10
2017-12-29T22:47:31.312Z,0.00
2017-12-29T22:50:01.160Z,0.10
2017-12-29T22:52:29.739Z,0.10
2017-12-29T22:55:00.197Z,0.20
2017-12-29T22:57:28.828Z,0.20
2017-12-29T22:59:57.148Z,0.10
2017-12-29T23:02:25.604Z,0.10
2017-12-29T23:04:54.298Z,0.20
2017-12-29T23:07:22.586Z,0.10
2017-12-29T23:09:51.432Z,0.10
2017-12-29T23:12:20.394Z,0.00
2017-12-29T23:14:48.835Z,-0.10
2017-12-29T23:17:17.261Z,-0.10
2017-12-29T23:19:45.485Z,0.00
2017-12-29T23:22:13.741Z,0.10
2017-12-29T23:24:42.954Z,0.00
2017-12-29T23:27:12.016Z,0.00
2017-12-29T23:29:40.237Z,0.00
2017-12-29T23:32:08.530Z,0.10
2017-12-29T23:34:36.846Z,0.20
2017-12-29T23:37:05.137Z,0.10
2017-12-29T23:39:34.150Z,0.00
2017-12-29T23:42:02.426Z,0.10
2017-12-29T23:44:31.431Z,0.10
2017-12-29T23:46:59.774Z,0.00
2017-12-29T23:49:28.769Z,0.00
2017-12-29T23:51:57.779Z,0.00
2017-12-29T23:54:26.091Z,0.00
2017-12-29T23:56:54.334Z,0.00
2017-12-29T23:59:23.309Z,0.10
